sensor_id;sensor_type;location;lat;lon;timestamp;pressure;altitude;pressure_sealevel;temperature;humidity
77303;BME280;66363;49.828;7.856;2023-02-19T00:02:07;100617.94;;;9.87;72.85
77303;BME280;66363;49.828;7.856;2023-02-19T00:04:33;100618.03;;;9.85;72.81
77303;BME280;66363;49.828;7.856;2023-02-19T00:07:00;100611.66;;;9.88;73.26
77303;BME280;66363;49.828;7.856;2023-02-19T00:09:26;100604.00;;;9.83;73.24
77303;BME280;66363;49.828;7.856;2023-02-19T00:11:51;100605.03;;;9.81;73.22
77303;BME280;66363;49.828;7.856;2023-02-19T00:14:19;100595.88;;;9.86;73.00
77303;BME280;66363;49.828;7.856;2023-02-19T00:16:45;100588.66;;;9.88;73.44
77303;BME280;66363;49.828;7.856;2023-02-19T00:19:13;100593.00;;;9.90;73.05
77303;BME280;66363;49.828;7.856;2023-02-19T00:21:39;100595.88;;;9.86;73.01
77303;BME280;66363;49.828;7.856;2023-02-19T00:24:09;100591.44;;;9.87;73.27
77303;BME280;66363;49.828;7.856;2023-02-19T00:26:37;100603.34;;;9.80;73.63
77303;BME280;66363;49.828;7.856;2023-02-19T00:29:03;100616.31;;;9.84;73.48
77303;BME280;66363;49.828;7.856;2023-02-19T00:31:30;100616.97;;;9.88;73.22
77303;BME280;66363;49.828;7.856;2023-02-19T00:33:58;100614.22;;;9.90;73.14
77303;BME280;66363;49.828;7.856;2023-02-19T00:36:25;100611.28;;;9.94;73.31
77303;BME280;66363;49.828;7.856;2023-02-19T00:38:51;100622.94;;;9.92;73.42
77303;BME280;66363;49.828;7.856;2023-02-19T00:41:20;100623.97;;;9.89;73.08
77303;BME280;66363;49.828;7.856;2023-02-19T00:43:48;100622.38;;;9.86;73.81
77303;BME280;66363;49.828;7.856;2023-02-19T00:46:14;100625.41;;;9.95;73.12
77303;BME280;66363;49.828;7.856;2023-02-19T00:48:40;100605.63;;;10.00;72.61
77303;BME280;66363;49.828;7.856;2023-02-19T00:51:06;100569.72;;;9.95;72.94
77303;BME280;66363;49.828;7.856;2023-02-19T00:53:31;100581.38;;;9.92;74.07
77303;BME280;66363;49.828;7.856;2023-02-19T00:55:57;100586.84;;;9.75;75.11
77303;BME280;66363;49.828;7.856;2023-02-19T00:58:24;100604.09;;;9.52;77.90
77303;BME280;66363;49.828;7.856;2023-02-19T01:00:50;100602.34;;;9.37;78.05
77303;BME280;66363;49.828;7.856;2023-02-19T01:03:16;100602.44;;;9.35;78.71
77303;BME280;66363;49.828;7.856;2023-02-19T01:05:41;100601.19;;;9.27;78.79
77303;BME280;66363;49.828;7.856;2023-02-19T01:08:07;100602.81;;;9.29;79.01
77303;BME280;66363;49.828;7.856;2023-02-19T01:10:33;100600.31;;;9.26;79.01
77303;BME280;66363;49.828;7.856;2023-02-19T01:12:58;100600.91;;;9.31;78.60
77303;BME280;66363;49.828;7.856;2023-02-19T01:15:25;100604.13;;;9.36;78.18
77303;BME280;66363;49.828;7.856;2023-02-19T01:17:51;100604.97;;;9.37;78.71
77303;BME280;66363;49.828;7.856;2023-02-19T01:20:17;100597.72;;;9.40;78.38
77303;BME280;66363;49.828;7.856;2023-02-19T01:22:43;100593.28;;;9.41;78.42
77303;BME280;66363;49.828;7.856;2023-02-19T01:25:08;100595.91;;;9.41;78.35
77303;BME280;66363;49.828;7.856;2023-02-19T01:27:34;100576.34;;;9.43;77.76
77303;BME280;66363;49.828;7.856;2023-02-19T01:30:00;100587.63;;;9.47;77.63
77303;BME280;66363;49.828;7.856;2023-02-19T01:32:27;100573.25;;;9.51;77.38
77303;BME280;66363;49.828;7.856;2023-02-19T01:34:52;100567.78;;;9.54;77.27
77303;BME280;66363;49.828;7.856;2023-02-19T01:37:18;100572.13;;;9.55;77.19
77303;BME280;66363;49.828;7.856;2023-02-19T01:39:43;100571.97;;;9.58;76.55
77303;BME280;66363;49.828;7.856;2023-02-19T01:42:12;100572.59;;;9.62;76.55
77303;BME280;66363;49.828;7.856;2023-02-19T01:47:39;100567.88;;;9.67;75.95
77303;BME280;66363;49.828;7.856;2023-02-19T01:50:05;100582.56;;;9.72;75.44
77303;BME280;66363;49.828;7.856;2023-02-19T01:52:34;100568.84;;;9.66;75.59
77303;BME280;66363;49.828;7.856;2023-02-19T01:55:02;100562.84;;;9.62;75.47
77303;BME280;66363;49.828;7.856;2023-02-19T01:57:33;100564.47;;;9.50;75.78
77303;BME280;66363;49.828;7.856;2023-02-19T02:00:02;100565.13;;;9.54;75.95
77303;BME280;66363;49.828;7.856;2023-02-19T02:02:29;100565.50;;;9.48;75.79
77303;BME280;66363;49.828;7.856;2023-02-19T02:04:57;100555.47;;;9.53;75.45
77303;BME280;66363;49.828;7.856;2023-02-19T02:07:23;100544.63;;;9.58;75.17
77303;BME280;66363;49.828;7.856;2023-02-19T02:09:50;100547.72;;;9.64;74.95
77303;BME280;66363;49.828;7.856;2023-02-19T02:12:16;100532.22;;;9.72;74.83
77303;BME280;66363;49.828;7.856;2023-02-19T02:14:44;100536.41;;;9.76;74.49
77303;BME280;66363;49.828;7.856;2023-02-19T02:17:15;100532.81;;;9.77;75.26
77303;BME280;66363;49.828;7.856;2023-02-19T02:20:04;100518.34;;;9.83;74.11
77303;BME280;66363;49.828;7.856;2023-02-19T02:22:41;100526.47;;;9.80;74.02
77303;BME280;66363;49.828;7.856;2023-02-19T02:28:27;100516.44;;;9.85;73.53
77303;BME280;66363;49.828;7.856;2023-02-19T02:31:01;100513.78;;;9.85;73.26
77303;BME280;66363;49.828;7.856;2023-02-19T02:33:34;100526.66;;;9.77;73.56
77303;BME280;66363;49.828;7.856;2023-02-19T02:36:04;100532.34;;;9.85;72.99
77303;BME280;66363;49.828;7.856;2023-02-19T02:38:36;100523.06;;;9.92;72.67
77303;BME280;66363;49.828;7.856;2023-02-19T02:41:04;100519.47;;;9.93;72.37
77303;BME280;66363;49.828;7.856;2023-02-19T02:43:31;100530.06;;;9.93;72.47
77303;BME280;66363;49.828;7.856;2023-02-19T02:45:58;100538.50;;;10.00;72.06
77303;BME280;66363;49.828;7.856;2023-02-19T02:48:29;100527.22;;;9.96;72.02
77303;BME280;66363;49.828;7.856;2023-02-19T02:51:00;100533.88;;;10.03;71.70
77303;BME280;66363;49.828;7.856;2023-02-19T02:53:29;100536.69;;;10.00;72.35
77303;BME280;66363;49.828;7.856;2023-02-19T02:55:58;100524.09;;;9.90;73.69
77303;BME280;66363;49.828;7.856;2023-02-19T02:58:24;100527.91;;;9.85;74.28
77303;BME280;66363;49.828;7.856;2023-02-19T03:00:55;100525.81;;;9.76;75.07
77303;BME280;66363;49.828;7.856;2023-02-19T03:03:27;100525.72;;;9.78;74.50
77303;BME280;66363;49.828;7.856;2023-02-19T03:05:57;100522.88;;;9.81;74.19
77303;BME280;66363;49.828;7.856;2023-02-19T03:08:28;100518.72;;;9.77;74.49
77303;BME280;66363;49.828;7.856;2023-02-19T03:10:58;100517.09;;;9.74;73.93
77303;BME280;66363;49.828;7.856;2023-02-19T03:13:29;100531.78;;;9.80;73.34
77303;BME280;66363;49.828;7.856;2023-02-19T03:16:00;100527.22;;;9.82;73.45
77303;BME280;66363;49.828;7.856;2023-02-19T03:18:32;100520.81;;;9.86;73.15
77303;BME280;66363;49.828;7.856;2023-02-19T03:21:00;100515.28;;;9.89;72.48
77303;BME280;66363;49.828;7.856;2023-02-19T03:23:31;100526.19;;;9.99;72.22
77303;BME280;66363;49.828;7.856;2023-02-19T03:25:57;100525.16;;;10.01;72.18
77303;BME280;66363;49.828;7.856;2023-02-19T03:28:26;100524.09;;;10.04;72.09
77303;BME280;66363;49.828;7.856;2023-02-19T03:30:54;100530.06;;;10.07;71.90
77303;BME280;66363;49.828;7.856;2023-02-19T03:33:22;100526.66;;;10.05;71.96
77303;BME280;66363;49.828;7.856;2023-02-19T03:35:54;100528.00;;;9.98;72.32
77303;BME280;66363;49.828;7.856;2023-02-19T03:38:25;100534.91;;;10.01;72.52
77303;BME280;66363;49.828;7.856;2023-02-19T03:40:55;100541.16;;;10.00;72.83
77303;BME280;66363;49.828;7.856;2023-02-19T03:43:33;100543.81;;;9.85;74.52
77303;BME280;66363;49.828;7.856;2023-02-19T03:46:06;100553.81;;;9.80;74.53
77303;BME280;66363;49.828;7.856;2023-02-19T03:48:35;100570.75;;;9.78;74.78
77303;BME280;66363;49.828;7.856;2023-02-19T03:51:10;100566.69;;;9.72;75.01
77303;BME280;66363;49.828;7.856;2023-02-19T03:53:48;100558.56;;;9.75;74.70
77303;BME280;66363;49.828;7.856;2023-02-19T03:56:21;100561.09;;;9.77;75.06
77303;BME280;66363;49.828;7.856;2023-02-19T03:58:54;100558.63;;;9.74;74.85
77303;BME280;66363;49.828;7.856;2023-02-19T04:01:26;100555.03;;;9.61;75.74
77303;BME280;66363;49.828;7.856;2023-02-19T04:03:57;100546.97;;;9.62;75.18
77303;BME280;66363;49.828;7.856;2023-02-19T04:06:28;100552.25;;;9.62;75.17
77303;BME280;66363;49.828;7.856;2023-02-19T04:08:57;100550.19;;;9.67;74.64
77303;BME280;66363;49.828;7.856;2023-02-19T04:11:24;100531.19;;;9.61;74.88
77303;BME280;66363;49.828;7.856;2023-02-19T04:13:55;100529.66;;;9.57;75.30
77303;BME280;66363;49.828;7.856;2023-02-19T04:16:26;100523.69;;;9.53;75.04
77303;BME280;66363;49.828;7.856;2023-02-19T04:18:55;100529.16;;;9.50;75.07
77303;BME280;66363;49.828;7.856;2023-02-19T04:21:23;100517.22;;;9.43;74.95
77303;BME280;66363;49.828;7.856;2023-02-19T04:23:50;100541.56;;;9.49;74.66
77303;BME280;66363;49.828;7.856;2023-02-19T04:26:19;100535.59;;;9.46;74.74
77303;BME280;66363;49.828;7.856;2023-02-19T04:28:47;100547.03;;;9.46;74.80
77303;BME280;66363;49.828;7.856;2023-02-19T04:31:13;100539.09;;;9.46;74.60
77303;BME280;66363;49.828;7.856;2023-02-19T04:33:38;100539.25;;;9.43;74.96
77303;BME280;66363;49.828;7.856;2023-02-19T04:36:05;100534.81;;;9.44;75.44
77303;BME280;66363;49.828;7.856;2023-02-19T04:38:31;100540.97;;;9.44;75.35
77303;BME280;66363;49.828;7.856;2023-02-19T04:40:58;100552.41;;;9.45;75.72
77303;BME280;66363;49.828;7.856;2023-02-19T04:43:24;100557.13;;;9.40;75.52
77303;BME280;66363;49.828;7.856;2023-02-19T04:45:50;100565.59;;;9.46;75.57
77303;BME280;66363;49.828;7.856;2023-02-19T04:48:15;100560.97;;;9.50;75.03
77303;BME280;66363;49.828;7.856;2023-02-19T04:50:41;100580.94;;;9.56;74.86
77303;BME280;66363;49.828;7.856;2023-02-19T04:53:06;100567.59;;;9.57;73.75
77303;BME280;66363;49.828;7.856;2023-02-19T04:55:36;100572.59;;;9.62;73.73
77303;BME280;66363;49.828;7.856;2023-02-19T04:58:03;100579.44;;;9.66;73.90
77303;BME280;66363;49.828;7.856;2023-02-19T05:00:29;100578.13;;;9.59;74.62
77303;BME280;66363;49.828;7.856;2023-02-19T05:02:54;100591.72;;;9.52;75.22
77303;BME280;66363;49.828;7.856;2023-02-19T05:05:20;100593.19;;;9.42;76.48
77303;BME280;66363;49.828;7.856;2023-02-19T05:07:46;100601.69;;;9.33;77.87
77303;BME280;66363;49.828;7.856;2023-02-19T05:10:11;100605.09;;;9.19;78.73
77303;BME280;66363;49.828;7.856;2023-02-19T05:12:37;100608.00;;;9.15;79.16
77303;BME280;66363;49.828;7.856;2023-02-19T05:15:04;100588.78;;;9.11;79.48
77303;BME280;66363;49.828;7.856;2023-02-19T05:17:32;100584.56;;;9.09;79.20
77303;BME280;66363;49.828;7.856;2023-02-19T05:19:58;100596.25;;;9.05;79.70
77303;BME280;66363;49.828;7.856;2023-02-19T05:22:23;100580.28;;;9.06;79.40
77303;BME280;66363;49.828;7.856;2023-02-19T05:24:49;100602.41;;;9.05;79.59
77303;BME280;66363;49.828;7.856;2023-02-19T05:27:14;100606.09;;;9.03;78.95
77303;BME280;66363;49.828;7.856;2023-02-19T05:29:40;100618.38;;;9.04;79.32
77303;BME280;66363;49.828;7.856;2023-02-19T05:32:07;100613.84;;;9.06;79.23
77303;BME280;66363;49.828;7.856;2023-02-19T05:34:33;100603.25;;;9.06;78.93
77303;BME280;66363;49.828;7.856;2023-02-19T05:36:58;100612.53;;;9.13;78.87
77303;BME280;66363;49.828;7.856;2023-02-19T05:39:24;100622.56;;;9.08;78.55
77303;BME280;66363;49.828;7.856;2023-02-19T05:41:50;100625.00;;;9.11;78.26
77303;BME280;66363;49.828;7.856;2023-02-19T05:44:15;100616.41;;;9.07;78.57
77303;BME280;66363;49.828;7.856;2023-02-19T05:46:41;100623.50;;;9.07;78.53
77303;BME280;66363;49.828;7.856;2023-02-19T05:49:08;100624.94;;;9.12;77.35
77303;BME280;66363;49.828;7.856;2023-02-19T05:51:34;100615.09;;;9.14;77.11
77303;BME280;66363;49.828;7.856;2023-02-19T05:53:59;100635.19;;;9.18;77.23
77303;BME280;66363;49.828;7.856;2023-02-19T05:56:36;100636.28;;;9.14;77.14
77303;BME280;66363;49.828;7.856;2023-02-19T05:59:04;100640.72;;;9.14;76.70
77303;BME280;66363;49.828;7.856;2023-02-19T06:01:30;100648.06;;;9.25;76.16
77303;BME280;66363;49.828;7.856;2023-02-19T06:03:56;100654.81;;;9.30;75.38
77303;BME280;66363;49.828;7.856;2023-02-19T06:06:23;100651.91;;;9.35;74.64
77303;BME280;66363;49.828;7.856;2023-02-19T06:08:50;100637.44;;;9.40;74.72
77303;BME280;66363;49.828;7.856;2023-02-19T06:11:16;100647.03;;;9.43;73.46
77303;BME280;66363;49.828;7.856;2023-02-19T06:13:42;100654.09;;;9.42;73.76
77303;BME280;66363;49.828;7.856;2023-02-19T06:16:08;100645.81;;;9.48;73.28
77303;BME280;66363;49.828;7.856;2023-02-19T06:18:34;100665.38;;;9.46;73.61
77303;BME280;66363;49.828;7.856;2023-02-19T06:21:00;100662.75;;;9.46;73.24
77303;BME280;66363;49.828;7.856;2023-02-19T06:23:28;100669.47;;;9.51;73.05
77303;BME280;66363;49.828;7.856;2023-02-19T06:25:53;100672.31;;;9.48;73.13
77303;BME280;66363;49.828;7.856;2023-02-19T06:28:19;100672.22;;;9.50;72.64
77303;BME280;66363;49.828;7.856;2023-02-19T06:30:45;100667.59;;;9.53;72.60
77303;BME280;66363;49.828;7.856;2023-02-19T06:33:10;100668.47;;;9.54;72.40
77303;BME280;66363;49.828;7.856;2023-02-19T06:35:36;100668.53;;;9.52;72.41
77303;BME280;66363;49.828;7.856;2023-02-19T06:38:02;100684.34;;;9.54;72.15
77303;BME280;66363;49.828;7.856;2023-02-19T06:40:29;100687.44;;;9.46;72.47
77303;BME280;66363;49.828;7.856;2023-02-19T06:42:54;100697.78;;;9.51;72.63
77303;BME280;66363;49.828;7.856;2023-02-19T06:45:20;100701.38;;;9.50;72.22
77303;BME280;66363;49.828;7.856;2023-02-19T06:47:46;100683.59;;;9.52;72.09
77303;BME280;66363;49.828;7.856;2023-02-19T06:50:11;100700.00;;;9.59;71.83
77303;BME280;66363;49.828;7.856;2023-02-19T06:52:37;100694.59;;;9.60;71.37
77303;BME280;66363;49.828;7.856;2023-02-19T06:55:03;100705.22;;;9.60;71.90
77303;BME280;66363;49.828;7.856;2023-02-19T06:57:30;100690.16;;;9.61;71.55
77303;BME280;66363;49.828;7.856;2023-02-19T06:59:55;100689.47;;;9.57;71.35
77303;BME280;66363;49.828;7.856;2023-02-19T07:02:21;100707.84;;;9.60;71.59
77303;BME280;66363;49.828;7.856;2023-02-19T07:04:47;100700.47;;;9.65;71.21
77303;BME280;66363;49.828;7.856;2023-02-19T07:07:12;100710.50;;;9.60;71.57
77303;BME280;66363;49.828;7.856;2023-02-19T07:09:38;100729.44;;;9.68;70.71
77303;BME280;66363;49.828;7.856;2023-02-19T07:12:04;100730.13;;;9.72;70.88
77303;BME280;66363;49.828;7.856;2023-02-19T07:14:31;100735.00;;;9.79;70.57
77303;BME280;66363;49.828;7.856;2023-02-19T07:16:57;100748.34;;;9.78;70.57
77303;BME280;66363;49.828;7.856;2023-02-19T07:19:22;100756.03;;;9.82;70.23
77303;BME280;66363;49.828;7.856;2023-02-19T07:21:48;100748.00;;;9.84;70.14
77303;BME280;66363;49.828;7.856;2023-02-19T07:24:14;100744.84;;;9.77;70.59
77303;BME280;66363;49.828;7.856;2023-02-19T07:26:40;100729.09;;;9.74;70.56
77303;BME280;66363;49.828;7.856;2023-02-19T07:29:05;100740.38;;;9.78;70.56
77303;BME280;66363;49.828;7.856;2023-02-19T07:31:32;100735.84;;;9.80;70.40
77303;BME280;66363;49.828;7.856;2023-02-19T07:33:58;100720.03;;;9.78;70.25
77303;BME280;66363;49.828;7.856;2023-02-19T07:36:24;100743.47;;;9.70;70.86
77303;BME280;66363;49.828;7.856;2023-02-19T07:38:52;100744.56;;;9.82;70.14
77303;BME280;66363;49.828;7.856;2023-02-19T07:41:18;100754.28;;;9.97;69.80
77303;BME280;66363;49.828;7.856;2023-02-19T07:43:44;100757.78;;;9.98;69.51
77303;BME280;66363;49.828;7.856;2023-02-19T07:46:11;100764.03;;;9.97;69.52
77303;BME280;66363;49.828;7.856;2023-02-19T07:48:40;100770.00;;;10.00;69.06
77303;BME280;66363;49.828;7.856;2023-02-19T07:51:08;100768.34;;;10.13;68.42
77303;BME280;66363;49.828;7.856;2023-02-19T07:53:35;100768.06;;;10.18;68.17
77303;BME280;66363;49.828;7.856;2023-02-19T07:56:02;100779.53;;;10.18;68.40
77303;BME280;66363;49.828;7.856;2023-02-19T07:58:28;100768.03;;;10.19;67.90
77303;BME280;66363;49.828;7.856;2023-02-19T08:00:54;100782.81;;;10.24;68.17
77303;BME280;66363;49.828;7.856;2023-02-19T08:03:20;100795.84;;;10.12;67.89
77303;BME280;66363;49.828;7.856;2023-02-19T08:05:47;100801.41;;;10.08;68.76
77303;BME280;66363;49.828;7.856;2023-02-19T08:08:13;100806.22;;;10.15;68.11
77303;BME280;66363;49.828;7.856;2023-02-19T08:10:39;100791.09;;;10.17;67.68
77303;BME280;66363;49.828;7.856;2023-02-19T08:13:05;100813.03;;;10.21;67.54
77303;BME280;66363;49.828;7.856;2023-02-19T08:15:31;100819.41;;;10.17;68.41
77303;BME280;66363;49.828;7.856;2023-02-19T08:17:57;100815.69;;;10.05;71.20
77303;BME280;66363;49.828;7.856;2023-02-19T08:20:23;100816.91;;;9.84;72.95
77303;BME280;66363;49.828;7.856;2023-02-19T08:22:50;100823.75;;;9.72;73.30
77303;BME280;66363;49.828;7.856;2023-02-19T08:25:15;100817.84;;;9.51;75.61
77303;BME280;66363;49.828;7.856;2023-02-19T08:27:41;100825.19;;;9.46;75.25
77303;BME280;66363;49.828;7.856;2023-02-19T08:30:08;100822.69;;;9.43;74.72
77303;BME280;66363;49.828;7.856;2023-02-19T08:32:33;100824.41;;;9.44;75.45
77303;BME280;66363;49.828;7.856;2023-02-19T08:34:59;100830.06;;;9.54;74.93
77303;BME280;66363;49.828;7.856;2023-02-19T08:37:24;100828.88;;;9.60;73.57
77303;BME280;66363;49.828;7.856;2023-02-19T08:39:51;100833.13;;;9.62;74.18
77303;BME280;66363;49.828;7.856;2023-02-19T08:42:17;100838.53;;;9.61;74.02
77303;BME280;66363;49.828;7.856;2023-02-19T08:44:43;100837.50;;;9.63;73.94
77303;BME280;66363;49.828;7.856;2023-02-19T08:47:08;100812.78;;;9.63;73.35
77303;BME280;66363;49.828;7.856;2023-02-19T08:49:34;100831.69;;;9.72;72.46
77303;BME280;66363;49.828;7.856;2023-02-19T08:52:00;100828.28;;;9.86;71.78
77303;BME280;66363;49.828;7.856;2023-02-19T08:54:25;100831.09;;;9.99;71.89
77303;BME280;66363;49.828;7.856;2023-02-19T08:56:52;100822.63;;;10.08;70.69
77303;BME280;66363;49.828;7.856;2023-02-19T08:59:18;100827.66;;;10.12;70.83
77303;BME280;66363;49.828;7.856;2023-02-19T09:01:43;100829.88;;;10.20;69.91
77303;BME280;66363;49.828;7.856;2023-02-19T09:04:11;100848.44;;;10.20;70.01
77303;BME280;66363;49.828;7.856;2023-02-19T09:06:36;100861.63;;;10.37;70.44
77303;BME280;66363;49.828;7.856;2023-02-19T09:09:02;100864.81;;;10.58;69.35
77303;BME280;66363;49.828;7.856;2023-02-19T09:11:28;100853.09;;;10.76;67.76
77303;BME280;66363;49.828;7.856;2023-02-19T09:13:56;100853.25;;;10.73;68.18
77303;BME280;66363;49.828;7.856;2023-02-19T09:16:21;100835.34;;;10.77;68.42
77303;BME280;66363;49.828;7.856;2023-02-19T09:18:47;100846.50;;;10.68;68.75
77303;BME280;66363;49.828;7.856;2023-02-19T09:21:12;100852.75;;;10.67;69.19
77303;BME280;66363;49.828;7.856;2023-02-19T09:23:38;100876.81;;;10.79;68.41
77303;BME280;66363;49.828;7.856;2023-02-19T09:26:05;100877.56;;;10.81;68.34
77303;BME280;66363;49.828;7.856;2023-02-19T09:28:31;100872.84;;;10.86;68.22
77303;BME280;66363;49.828;7.856;2023-02-19T09:31:04;100874.66;;;10.86;67.92
77303;BME280;66363;49.828;7.856;2023-02-19T09:33:29;100869.78;;;10.93;68.81
77303;BME280;66363;49.828;7.856;2023-02-19T09:35:57;100875.31;;;11.04;67.41
77303;BME280;66363;49.828;7.856;2023-02-19T09:38:23;100877.53;;;11.11;66.19
77303;BME280;66363;49.828;7.856;2023-02-19T09:40:48;100890.31;;;11.05;66.23
77303;BME280;66363;49.828;7.856;2023-02-19T09:43:16;100883.13;;;11.07;66.66
77303;BME280;66363;49.828;7.856;2023-02-19T09:45:44;100885.69;;;11.08;66.46
77303;BME280;66363;49.828;7.856;2023-02-19T09:48:11;100902.47;;;11.09;65.76
77303;BME280;66363;49.828;7.856;2023-02-19T09:50:39;100894.13;;;11.15;66.19
77303;BME280;66363;49.828;7.856;2023-02-19T09:53:12;100901.91;;;11.18;65.37
77303;BME280;66363;49.828;7.856;2023-02-19T09:55:40;100900.22;;;11.31;65.83
77303;BME280;66363;49.828;7.856;2023-02-19T09:58:18;100902.88;;;11.45;63.63
77303;BME280;66363;49.828;7.856;2023-02-19T10:00:48;100894.81;;;11.33;65.12
77303;BME280;66363;49.828;7.856;2023-02-19T10:03:23;100892.53;;;11.41;65.38
77303;BME280;66363;49.828;7.856;2023-02-19T10:05:51;100896.31;;;11.51;64.71
77303;BME280;66363;49.828;7.856;2023-02-19T10:08:19;100906.19;;;11.63;63.25
77303;BME280;66363;49.828;7.856;2023-02-19T10:10:44;100908.78;;;11.79;63.38
77303;BME280;66363;49.828;7.856;2023-02-19T10:13:16;100923.38;;;12.00;62.75
77303;BME280;66363;49.828;7.856;2023-02-19T10:15:43;100908.06;;;12.18;61.27
77303;BME280;66363;49.828;7.856;2023-02-19T10:18:10;100911.22;;;12.37;60.19
77303;BME280;66363;49.828;7.856;2023-02-19T10:20:37;100922.50;;;12.68;60.16
77303;BME280;66363;49.828;7.856;2023-02-19T10:23:04;100927.91;;;12.93;58.39
77303;BME280;66363;49.828;7.856;2023-02-19T10:25:31;100928.81;;;12.79;59.56
77303;BME280;66363;49.828;7.856;2023-02-19T10:27:57;100916.94;;;12.98;57.68
77303;BME280;66363;49.828;7.856;2023-02-19T10:30:27;100915.50;;;13.44;56.62
77303;BME280;66363;49.828;7.856;2023-02-19T10:33:01;100917.94;;;13.22;55.34
77303;BME280;66363;49.828;7.856;2023-02-19T10:35:27;100921.25;;;13.51;54.90
77303;BME280;66363;49.828;7.856;2023-02-19T10:37:56;100922.31;;;13.36;55.95
77303;BME280;66363;49.828;7.856;2023-02-19T10:40:24;100934.78;;;13.22;56.46
77303;BME280;66363;49.828;7.856;2023-02-19T10:42:53;100942.09;;;12.67;56.95
77303;BME280;66363;49.828;7.856;2023-02-19T10:45:22;100959.38;;;12.20;57.91
77303;BME280;66363;49.828;7.856;2023-02-19T10:47:50;100979.34;;;11.84;59.53
77303;BME280;66363;49.828;7.856;2023-02-19T10:50:23;100967.19;;;11.80;59.70
77303;BME280;66363;49.828;7.856;2023-02-19T10:52:52;100984.00;;;11.81;58.88
77303;BME280;66363;49.828;7.856;2023-02-19T10:55:28;100984.16;;;12.06;59.10
77303;BME280;66363;49.828;7.856;2023-02-19T10:57:54;100988.06;;;12.15;58.37
77303;BME280;66363;49.828;7.856;2023-02-19T11:00:22;100997.78;;;11.87;60.42
77303;BME280;66363;49.828;7.856;2023-02-19T11:02:48;101003.38;;;11.83;60.89
77303;BME280;66363;49.828;7.856;2023-02-19T11:05:16;101004.31;;;11.82;60.99
77303;BME280;66363;49.828;7.856;2023-02-19T11:07:45;101005.34;;;12.08;61.53
77303;BME280;66363;49.828;7.856;2023-02-19T11:10:22;100996.34;;;12.51;59.69
77303;BME280;66363;49.828;7.856;2023-02-19T11:12:53;100999.22;;;13.15;57.23
77303;BME280;66363;49.828;7.856;2023-02-19T11:15:21;100992.19;;;15.12;51.71
77303;BME280;66363;49.828;7.856;2023-02-19T11:17:54;100974.63;;;17.51;45.21
77303;BME280;66363;49.828;7.856;2023-02-19T11:20:20;100983.75;;;19.47;40.32
77303;BME280;66363;49.828;7.856;2023-02-19T11:22:45;100961.56;;;20.47;36.93
77303;BME280;66363;49.828;7.856;2023-02-19T11:25:19;100947.22;;;20.82;36.81
77303;BME280;66363;49.828;7.856;2023-02-19T11:27:55;100951.53;;;22.48;32.27
77303;BME280;66363;49.828;7.856;2023-02-19T11:30:32;100961.69;;;20.18;37.08
77303;BME280;66363;49.828;7.856;2023-02-19T11:33:17;100978.66;;;18.67;40.00
77303;BME280;66363;49.828;7.856;2023-02-19T11:35:44;100967.34;;;17.62;42.63
77303;BME280;66363;49.828;7.856;2023-02-19T11:38:10;100967.97;;;18.37;40.69
77303;BME280;66363;49.828;7.856;2023-02-19T11:40:40;100971.69;;;17.54;41.77
77303;BME280;66363;49.828;7.856;2023-02-19T11:43:19;100975.25;;;16.70;43.32
77303;BME280;66363;49.828;7.856;2023-02-19T11:45:54;100960.13;;;16.14;44.09
77303;BME280;66363;49.828;7.856;2023-02-19T11:48:40;100973.53;;;15.81;45.77
77303;BME280;66363;49.828;7.856;2023-02-19T11:51:45;100987.72;;;14.65;48.18
77303;BME280;66363;49.828;7.856;2023-02-19T11:54:26;100979.47;;;13.95;48.98
77303;BME280;66363;49.828;7.856;2023-02-19T11:57:04;100973.38;;;13.93;49.13
77303;BME280;66363;49.828;7.856;2023-02-19T11:59:38;100991.75;;;14.34;48.44
77303;BME280;66363;49.828;7.856;2023-02-19T12:02:39;100995.19;;;14.49;47.90
77303;BME280;66363;49.828;7.856;2023-02-19T12:05:30;100987.81;;;14.76;47.87
77303;BME280;66363;49.828;7.856;2023-02-19T12:08:18;100990.63;;;14.13;49.85
77303;BME280;66363;49.828;7.856;2023-02-19T12:11:00;100994.50;;;13.83;51.01
77303;BME280;66363;49.828;7.856;2023-02-19T12:13:39;101000.28;;;13.77;51.46
77303;BME280;66363;49.828;7.856;2023-02-19T12:16:16;100989.19;;;13.58;51.99
77303;BME280;66363;49.828;7.856;2023-02-19T12:19:08;100996.75;;;13.51;51.75
77303;BME280;66363;49.828;7.856;2023-02-19T12:21:50;100974.13;;;13.32;52.36
77303;BME280;66363;49.828;7.856;2023-02-19T12:24:50;100996.31;;;13.32;53.64
77303;BME280;66363;49.828;7.856;2023-02-19T12:27:27;100989.72;;;13.25;52.19
77303;BME280;66363;49.828;7.856;2023-02-19T12:30:12;100987.25;;;13.22;52.23
77303;BME280;66363;49.828;7.856;2023-02-19T12:32:58;100978.41;;;13.21;53.69
77303;BME280;66363;49.828;7.856;2023-02-19T12:35:46;100971.06;;;13.50;51.94
77303;BME280;66363;49.828;7.856;2023-02-19T12:38:20;100972.56;;;13.67;51.63
77303;BME280;66363;49.828;7.856;2023-02-19T12:40:56;100992.03;;;13.30;52.03
77303;BME280;66363;49.828;7.856;2023-02-19T12:43:25;100992.28;;;13.39;52.00
77303;BME280;66363;49.828;7.856;2023-02-19T12:45:53;100987.13;;;13.23;52.26
77303;BME280;66363;49.828;7.856;2023-02-19T12:48:28;100978.19;;;13.24;52.02
77303;BME280;66363;49.828;7.856;2023-02-19T12:50:56;100997.72;;;13.50;51.73
77303;BME280;66363;49.828;7.856;2023-02-19T12:53:39;100994.28;;;13.36;52.22
77303;BME280;66363;49.828;7.856;2023-02-19T12:56:11;100995.38;;;13.06;53.02
77303;BME280;66363;49.828;7.856;2023-02-19T12:58:41;100997.84;;;12.82;53.90
77303;BME280;66363;49.828;7.856;2023-02-19T13:01:10;101007.94;;;12.50;56.08
77303;BME280;66363;49.828;7.856;2023-02-19T13:03:46;100992.88;;;12.64;55.86
77303;BME280;66363;49.828;7.856;2023-02-19T13:06:25;100979.88;;;12.86;55.08
77303;BME280;66363;49.828;7.856;2023-02-19T13:08:57;100989.19;;;13.06;54.28
77303;BME280;66363;49.828;7.856;2023-02-19T13:11:28;100960.69;;;13.58;53.86